Time;durP1;ratioP1;P1;durP2;ratioP2;P2;SDS_P1;SDS_P2;PMS_P1;PMS_P2;Temp;Humidity;BMP_temperature;BMP_pressure;BME280_temperature;BME280_humidity;BME280_pressure;Samples;Min_cycle;Max_cycle;Signal;HPM_P1;HPM_P2
2022/01/01 00:01:04;;;;;;;33.77;19.83;;;;;;;11.67;97.59;101833.38;5033486;28;20221;-69
2022/01/01 00:03:30;;;;;;;35.63;18.80;;;;;;;11.66;97.31;101836.72;5014589;28;20186;-69
2022/01/01 00:05:55;;;;;;;31.60;16.50;;;;;;;11.66;97.33;101835.88;5032236;28;20222;-69
2022/01/01 00:08:20;;;;;;;29.57;16.50;;;;;;;11.65;96.97;101845.25;5033125;28;20213;-69
2022/01/01 00:10:45;;;;;;;31.67;14.93;;;;;;;11.65;96.97;101837.56;5032279;28;20197;-69
2022/01/01 00:13:11;;;;;;;30.50;15.00;;;;;;;11.64;96.90;101838.38;5032279;28;20191;-69
2022/01/01 00:15:36;;;;;;;30.37;14.40;;;;;;;11.65;97.06;101840.13;5032177;28;20198;-69
2022/01/01 00:18:01;;;;;;;31.33;14.30;;;;;;;11.64;96.51;101853.78;5014266;28;20278;-68
2022/01/01 00:20:27;;;;;;;27.00;13.77;;;;;;;11.64;96.61;101856.34;5031916;28;20191;-69
2022/01/01 00:22:52;;;;;;;30.20;13.70;;;;;;;11.61;96.29;101860.53;5033025;28;20204;-69
2022/01/01 00:25:18;;;;;;;28.37;13.53;;;;;;;11.59;96.30;101868.16;5051836;28;20205;-69
2022/01/01 00:27:43;;;;;;;29.40;13.63;;;;;;;11.58;96.59;101868.97;5051907;28;20250;-69
2022/01/01 00:30:09;;;;;;;26.20;12.97;;;;;;;11.59;96.58;101875.84;5033647;28;20182;-69
2022/01/01 00:32:36;;;;;;;28.23;11.90;;;;;;;11.59;96.68;101875.84;5042377;28;20589;-69
2022/01/01 00:35:03;;;;;;;19.33;11.67;;;;;;;11.57;96.35;101882.56;5031817;28;20210;-69
2022/01/01 00:37:28;;;;;;;27.03;12.80;;;;;;;11.61;96.33;101876.75;5044302;28;20194;-69
2022/01/01 00:39:55;;;;;;;24.50;12.23;;;;;;;11.58;96.49;101888.59;5044991;28;20252;-69
2022/01/01 00:42:21;;;;;;;23.00;11.70;;;;;;;11.56;96.47;101888.53;5044472;28;20264;-69
2022/01/01 00:44:46;;;;;;;27.97;12.70;;;;;;;11.59;96.28;101882.63;5031688;28;20679;-69
2022/01/01 00:47:11;;;;;;;26.43;12.93;;;;;;;11.58;96.90;101889.47;5036798;28;20198;-69
2022/01/01 00:49:37;;;;;;;28.73;13.27;;;;;;;11.58;97.30;101886.03;5050152;28;20263;-69
2022/01/01 00:52:02;;;;;;;23.43;12.13;;;;;;;11.56;96.92;101878.28;5049732;28;20205;-69
2022/01/01 00:54:28;;;;;;;25.50;12.53;;;;;;;11.57;96.76;101890.28;5050778;28;20240;-69
2022/01/01 00:56:53;;;;;;;25.73;12.70;;;;;;;11.56;96.62;101891.09;5051720;28;20198;-69
2022/01/01 00:59:20;;;;;;;22.43;10.90;;;;;;;11.54;97.03;101881.63;5051402;28;20177;-69
2022/01/01 01:01:45;;;;;;;21.57;11.50;;;;;;;11.54;96.20;101889.31;5033404;28;20189;-69
2022/01/01 01:04:10;;;;;;;23.07;11.30;;;;;;;11.53;96.40;101891.00;5051321;28;20597;-69
2022/01/01 01:06:36;;;;;;;26.00;11.43;;;;;;;11.53;96.45;101900.41;5031673;28;20591;-69
2022/01/01 01:09:01;;;;;;;21.07;10.17;;;;;;;11.55;96.38;101898.75;5031644;28;20236;-69
2022/01/01 01:11:28;;;;;;;22.50;10.40;;;;;;;11.52;96.34;101896.97;5031226;28;20214;-69
2022/01/01 01:14:00;;;;;;;20.63;10.10;;;;;;;11.55;96.25;101885.91;5031237;28;20663;-68
2022/01/01 01:16:28;;;;;;;20.07;10.40;;;;;;;11.55;96.20;101898.75;5031133;28;20702;-68
2022/01/01 01:18:54;;;;;;;24.20;9.90;;;;;;;11.55;95.94;101906.44;5030737;28;20728;-69
2022/01/01 01:21:23;;;;;;;24.73;10.17;;;;;;;11.55;95.95;101901.31;5030983;28;20233;-69
2022/01/01 01:23:49;;;;;;;23.07;9.93;;;;;;;11.55;96.10;101904.75;5013212;28;20194;-69
2022/01/01 01:26:15;;;;;;;22.90;10.30;;;;;;;11.57;95.92;101899.69;5031500;28;20598;-69
2022/01/01 01:28:47;;;;;;;23.83;10.27;;;;;;;11.57;95.81;101886.84;5030583;28;20207;-69
2022/01/01 01:31:12;;;;;;;22.93;10.47;;;;;;;11.60;95.88;101892.97;5030771;28;20704;-69
2022/01/01 01:33:38;;;;;;;21.30;10.23;;;;;;;11.61;95.83;101897.28;5030768;28;20261;-68
2022/01/01 01:36:03;;;;;;;24.93;10.47;;;;;;;11.57;95.83;101905.66;5013007;28;20244;-69
2022/01/01 01:38:28;;;;;;;22.23;10.17;;;;;;;11.57;95.93;101905.66;5030463;28;20191;-69
2022/01/01 01:40:54;;;;;;;24.97;10.60;;;;;;;11.57;95.62;101900.53;5031582;28;20187;-69
2022/01/01 01:43:19;;;;;;;21.20;9.60;;;;;;;11.58;95.69;101917.69;5035720;28;20236;-69
2022/01/01 01:45:46;;;;;;;28.73;11.53;;;;;;;11.62;96.04;101911.00;5050388;28;20205;-68
2022/01/01 01:48:12;;;;;;;21.67;10.17;;;;;;;11.59;95.71;101905.72;5050138;28;20198;-69
2022/01/01 01:50:37;;;;;;;22.90;10.47;;;;;;;11.58;95.71;101912.56;5050681;28;20243;-69
2022/01/01 01:53:03;;;;;;;25.00;10.50;;;;;;;11.57;95.55;101915.94;5050456;28;20220;-69
2022/01/01 01:55:29;;;;;;;21.60;10.27;;;;;;;11.56;95.63;101919.31;5032357;28;20198;-69
2022/01/01 01:57:55;;;;;;;24.17;11.20;;;;;;;11.55;95.46;101917.59;5050102;28;20189;-69
2022/01/01 02:02:52;;;;;;;20.90;10.17;;;;;;;11.55;95.52;101911.56;5050222;28;20658;-69
2022/01/01 02:05:17;;;;;;;23.57;10.13;;;;;;;11.52;95.36;101912.34;5049782;28;20190;-69
2022/01/01 02:07:43;;;;;;;22.83;9.37;;;;;;;11.52;95.38;101909.78;5050033;28;20208;-69
2022/01/01 02:10:09;;;;;;;25.07;9.80;;;;;;;11.54;95.30;101907.28;5049594;28;20743;-69
2022/01/01 02:12:34;;;;;;;20.60;9.20;;;;;;;11.54;95.52;101905.59;5032138;28;20182;-69
2022/01/01 02:17:28;;;;;;;23.30;9.53;;;;;;;11.51;95.63;101910.59;5049017;28;20300;-69
2022/01/01 02:19:59;;;;;;;24.97;10.47;;;;;;;11.52;95.71;101914.06;5049085;28;20588;-69
2022/01/01 02:22:27;;;;;;;21.00;9.50;;;;;;;11.50;96.04;101908.88;5049821;28;20646;-69
2022/01/01 02:24:53;;;;;;;22.63;10.83;;;;;;;11.52;95.91;101920.03;5049611;28;20209;-68
2022/01/01 02:27:18;;;;;;;26.27;10.77;;;;;;;11.53;96.23;101926.06;5049576;28;20558;-69
2022/01/01 02:29:44;;;;;;;22.33;11.83;;;;;;;11.52;96.06;101922.59;5049331;28;20263;-69
2022/01/01 02:32:13;;;;;;;22.97;11.50;;;;;;;11.55;95.98;101930.41;5049579;28;20185;-68
2022/01/01 02:34:40;;;;;;;25.17;11.73;;;;;;;11.52;96.20;101932.88;5048905;28;20213;-69
2022/01/01 02:37:05;;;;;;;25.40;12.83;;;;;;;11.54;96.23;101938.94;5048911;28;20662;-69
2022/01/01 02:39:30;;;;;;;24.30;12.47;;;;;;;11.56;96.21;101954.38;5046769;28;20249;-69
2022/01/01 02:41:57;;;;;;;28.67;12.33;;;;;;;11.54;96.31;101967.16;5049586;28;20972;-69
2022/01/01 02:44:24;;;;;;;30.63;12.00;;;;;;;11.54;96.30;101969.72;5040315;28;20251;-69
2022/01/01 02:46:53;;;;;;;27.63;13.00;;;;;;;11.53;96.20;101979.94;5029596;28;20204;-69
2022/01/01 02:49:19;;;;;;;29.73;13.30;;;;;;;11.51;96.12;101966.16;5027906;28;20438;-69
2022/01/01 02:51:44;;;;;;;25.87;12.87;;;;;;;11.51;96.23;101959.34;5039148;28;20296;-69
2022/01/01 02:54:09;;;;;;;30.93;13.17;;;;;;;11.53;96.09;101957.69;5049321;28;20220;-69
2022/01/01 02:56:35;;;;;;;25.23;11.83;;;;;;;11.55;95.88;101947.47;5040001;28;20210;-69
2022/01/01 02:59:00;;;;;;;29.43;13.03;;;;;;;11.52;96.02;101947.41;5029316;28;20186;-69
2022/01/01 03:01:26;;;;;;;29.20;13.40;;;;;;;11.54;96.01;101961.13;5029308;28;20186;-68
2022/01/01 03:03:51;;;;;;;25.93;12.30;;;;;;;11.54;96.02;101964.59;5029607;28;20592;-69
2022/01/01 03:06:19;;;;;;;23.03;11.73;;;;;;;11.53;95.90;101960.25;5029499;28;20206;-69
2022/01/01 03:08:46;;;;;;;28.60;13.17;;;;;;;11.52;95.80;101966.22;5034788;28;20214;-69
2022/01/01 03:11:12;;;;;;;25.17;12.90;;;;;;;11.54;95.48;101967.16;5029368;28;20189;-68
2022/01/01 03:13:37;;;;;;;30.20;13.27;;;;;;;11.54;95.83;101959.47;5029364;28;20190;-69
2022/01/01 03:16:02;;;;;;;29.90;13.43;;;;;;;11.53;95.65;101954.28;5029265;28;20248;-69
2022/01/01 03:18:28;;;;;;;29.03;13.30;;;;;;;11.55;95.70;101956.06;5032791;28;20186;-69
2022/01/01 03:20:53;;;;;;;31.23;13.33;;;;;;;11.55;95.73;101962.88;5033206;28;20190;-70
2022/01/01 03:23:18;;;;;;;28.50;13.57;;;;;;;11.57;95.84;101954.41;5033039;28;20186;-69
2022/01/01 03:25:44;;;;;;;37.40;14.30;;;;;;;11.54;95.70;101956.91;5033742;28;20218;-69
2022/01/01 03:28:10;;;;;;;31.53;14.97;;;;;;;11.55;95.52;101955.19;5032878;28;20198;-69
2022/01/01 03:30:35;;;;;;;26.43;13.43;;;;;;;11.53;95.63;101952.56;5032973;28;20739;-69
2022/01/01 03:33:00;;;;;;;36.37;13.93;;;;;;;11.52;95.76;101950.81;5040216;28;20278;-68
2022/01/01 03:35:26;;;;;;;34.87;14.57;;;;;;;11.51;95.34;101950.75;5052744;28;20221;-69
2022/01/01 03:37:51;;;;;;;31.00;14.20;;;;;;;11.54;95.24;101961.13;5052628;28;20181;-69
2022/01/01 03:40:16;;;;;;;33.40;15.33;;;;;;;11.53;95.42;101964.53;5052797;28;20704;-69
2022/01/01 03:42:42;;;;;;;33.27;13.73;;;;;;;11.54;95.26;101973.97;5043387;28;20201;-69
2022/01/01 03:45:08;;;;;;;31.17;14.37;;;;;;;11.52;94.97;101985.88;5032620;28;20205;-69
2022/01/01 03:47:34;;;;;;;29.27;14.40;;;;;;;11.50;95.12;101979.81;5032726;28;20182;-69
2022/01/01 03:50:00;;;;;;;28.90;13.80;;;;;;;11.54;95.11;101979.09;5032346;28;20623;-69
2022/01/01 03:52:25;;;;;;;35.00;15.60;;;;;;;11.54;95.10;101979.97;5032549;28;20183;-69
2022/01/01 03:54:51;;;;;;;37.70;15.07;;;;;;;11.55;94.72;101981.72;5032592;28;20198;-68
2022/01/01 03:57:16;;;;;;;30.50;15.30;;;;;;;11.53;95.21;101979.94;5032586;28;20197;-69
2022/01/01 03:59:41;;;;;;;26.60;13.60;;;;;;;11.53;94.81;101983.34;5032865;28;20702;-69
2022/01/01 04:02:06;;;;;;;29.97;14.50;;;;;;;11.51;94.78;101982.44;5032489;28;20182;-69
2022/01/01 04:04:32;;;;;;;34.57;14.93;;;;;;;11.48;95.03;101984.03;5043635;28;20198;-69
2022/01/01 04:06:57;;;;;;;31.83;15.33;;;;;;;11.46;95.33;101978.84;5061017;28;20243;-68
2022/01/01 04:09:23;;;;;;;25.77;14.97;;;;;;;11.44;95.12;101992.44;5053151;28;20225;-69
2022/01/01 04:11:49;;;;;;;31.53;15.57;;;;;;;11.44;94.83;101983.06;5051011;28;20282;-69
2022/01/01 04:14:16;;;;;;;30.93;15.90;;;;;;;11.42;95.40;101982.13;5052235;28;20182;-69
2022/01/01 04:16:42;;;;;;;32.53;15.60;;;;;;;11.42;94.96;101987.25;5043045;28;20586;-69
2022/01/01 04:19:08;;;;;;;31.83;16.37;;;;;;;11.44;95.27;102000.13;5032156;28;20265;-69
2022/01/01 04:21:34;;;;;;;36.87;16.83;;;;;;;11.45;95.31;102000.19;5032374;28;20627;-69
2022/01/01 04:23:59;;;;;;;33.23;16.43;;;;;;;11.46;95.19;101989.09;5032296;28;20656;-69
2022/01/01 04:26:25;;;;;;;34.83;17.73;;;;;;;11.45;95.26;101997.63;5047525;28;20216;-69
2022/01/01 04:28:50;;;;;;;32.97;16.43;;;;;;;11.43;95.19;101991.53;5070303;28;20228;-69
2022/01/01 04:31:16;;;;;;;30.50;15.77;;;;;;;11.45;95.36;101994.16;5071829;28;20668;-70
2022/01/01 04:33:42;;;;;;;35.83;16.20;;;;;;;11.45;95.07;102005.31;5056583;28;20187;-69
2022/01/01 04:36:08;;;;;;;31.40;15.50;;;;;;;11.47;95.14;102013.06;5064411;28;20213;-69
2022/01/01 04:38:37;;;;;;;28.57;15.97;;;;;;;11.47;95.31;102016.47;5071870;28;20294;-69
2022/01/01 04:41:06;;;;;;;35.80;17.70;;;;;;;11.45;95.25;102024.94;5064596;28;20686;-69
2022/01/01 04:43:31;;;;;;;32.03;16.03;;;;;;;11.45;95.22;102019.81;5051563;28;20202;-68
2022/01/01 04:45:57;;;;;;;33.47;16.63;;;;;;;11.45;94.98;102035.22;5050290;28;20205;-69
2022/01/01 04:48:22;;;;;;;31.43;16.17;;;;;;;11.45;94.93;102032.66;5051303;28;20674;-69
2022/01/01 04:50:48;;;;;;;36.90;17.30;;;;;;;11.43;95.21;102027.47;5050523;28;20566;-69
2022/01/01 04:53:17;;;;;;;37.80;17.27;;;;;;;11.46;95.18;102031.81;5051529;28;20204;-69
2022/01/01 04:55:42;;;;;;;29.83;15.70;;;;;;;11.45;95.45;102033.53;5051446;28;20258;-69
2022/01/01 04:58:08;;;;;;;35.60;16.87;;;;;;;11.44;94.88;102031.78;5051121;28;20264;-69
2022/01/01 05:00:33;;;;;;;29.43;15.20;;;;;;;11.45;95.07;102032.66;5051348;28;20343;-69
2022/01/01 05:02:58;;;;;;;35.53;17.83;;;;;;;11.44;95.24;102038.59;5051302;28;20240;-69
2022/01/01 05:05:24;;;;;;;35.03;16.93;;;;;;;11.42;95.25;102035.97;5033264;28;20249;-69
2022/01/01 05:07:50;;;;;;;35.20;17.10;;;;;;;11.45;95.26;102035.22;5050199;28;20271;-68
2022/01/01 05:10:15;;;;;;;40.60;16.60;;;;;;;11.44;95.30;102033.47;5051034;28;20224;-69
2022/01/01 05:12:41;;;;;;;33.30;16.73;;;;;;;11.47;95.29;102042.13;5050966;28;20190;-69
2022/01/01 05:15:06;;;;;;;33.50;16.33;;;;;;;11.46;95.25;102039.50;5051051;28;20209;-68
2022/01/01 05:17:32;;;;;;;39.03;17.63;;;;;;;11.47;95.22;102047.25;5050946;28;20197;-69
2022/01/01 05:19:57;;;;;;;47.07;18.07;;;;;;;11.48;94.56;102051.56;5050571;28;20189;-69
2022/01/01 05:22:22;;;;;;;37.27;17.37;;;;;;;11.50;94.49;102056.75;5050875;28;20654;-68
2022/01/01 05:24:48;;;;;;;46.30;16.90;;;;;;;11.47;94.95;102064.38;5050005;28;20216;-69
2022/01/01 05:27:13;;;;;;;37.97;18.70;;;;;;;11.48;95.19;102051.56;5032890;28;20289;-69
2022/01/01 05:29:38;;;;;;;37.03;17.40;;;;;;;11.46;94.85;102060.03;5050571;28;20313;-69
2022/01/01 05:32:04;;;;;;;37.30;17.70;;;;;;;11.46;95.07;102062.59;5050922;28;20276;-69
2022/01/01 05:34:29;;;;;;;37.67;18.73;;;;;;;11.45;94.99;102058.28;5048975;28;20269;-69
2022/01/01 05:36:54;;;;;;;40.47;19.10;;;;;;;11.47;95.05;102065.22;5049677;28;20650;-69
2022/01/01 05:39:20;;;;;;;34.83;17.83;;;;;;;11.48;95.34;102068.66;5048700;28;20666;-69
2022/01/01 05:41:45;;;;;;;38.73;17.70;;;;;;;11.46;95.13;102072.84;5040501;28;20200;-69
2022/01/01 05:44:10;;;;;;;32.93;17.13;;;;;;;11.46;95.21;102072.84;5030544;28;20183;-69
2022/01/01 05:46:36;;;;;;;37.70;18.17;;;;;;;11.45;95.05;102074.56;5030475;28;20222;-69
2022/01/01 05:49:01;;;;;;;40.00;17.80;;;;;;;11.48;94.73;102082.34;5029989;28;20218;-69
2022/01/01 05:51:27;;;;;;;36.70;18.80;;;;;;;11.45;94.85;102079.69;5030497;28;20186;-69
2022/01/01 05:53:52;;;;;;;39.10;20.03;;;;;;;11.47;94.90;102078.03;5039000;28;20220;-69
2022/01/01 05:56:17;;;;;;;38.17;19.83;;;;;;;11.46;95.17;102076.31;5056127;28;20205;-69
2022/01/01 05:58:43;;;;;;;43.47;19.77;;;;;;;11.49;95.35;102075.53;5055104;28;20194;-69
2022/01/01 06:01:08;;;;;;;41.70;18.30;;;;;;;11.50;94.67;102082.41;5031028;28;20186;-68
2022/01/01 06:03:33;;;;;;;43.60;19.60;;;;;;;11.48;94.90;102094.31;5070101;28;20196;-69
2022/01/01 06:05:58;;;;;;;40.17;19.77;;;;;;;11.48;94.91;102089.19;5069952;28;20220;-69
2022/01/01 06:08:28;;;;;;;43.43;20.20;;;;;;;11.49;95.09;102096.94;5069713;28;20213;-70
2022/01/01 06:10:54;;;;;;;42.20;19.93;;;;;;;11.50;94.96;102083.28;5069799;28;20200;-69
2022/01/01 06:13:19;;;;;;;44.07;20.90;;;;;;;11.50;95.22;102091.00;5050018;28;20217;-69
2022/01/01 06:15:45;;;;;;;44.70;20.37;;;;;;;11.51;94.97;102094.41;5049056;28;20237;-69
2022/01/01 06:18:10;;;;;;;40.97;21.37;;;;;;;11.54;94.92;102099.66;5049672;28;20213;-69
2022/01/01 06:20:35;;;;;;;38.97;19.47;;;;;;;11.53;95.27;102097.91;5049755;28;20243;-69
2022/01/01 06:23:02;;;;;;;42.10;19.57;;;;;;;11.51;95.08;102099.53;5049930;28;20190;-69
2022/01/01 06:25:27;;;;;;;46.53;19.83;;;;;;;11.51;94.92;102107.22;5049608;28;20206;-69
2022/01/01 06:27:53;;;;;;;40.73;20.00;;;;;;;11.50;95.15;102101.25;5049684;28;20193;-69
2022/01/01 06:30:18;;;;;;;40.27;20.33;;;;;;;11.51;94.97;102107.22;5049508;28;20702;-69
2022/01/01 06:32:43;;;;;;;38.30;18.63;;;;;;;11.49;94.62;102108.88;5048827;28;20658;-69
2022/01/01 06:35:09;;;;;;;40.57;19.83;;;;;;;11.50;94.58;102100.38;5049533;28;20208;-69
2022/01/01 06:37:34;;;;;;;34.63;18.33;;;;;;;11.48;94.57;102099.44;5049921;28;20671;-69
2022/01/01 06:39:59;;;;;;;36.97;17.93;;;;;;;11.48;94.52;102102.88;5049301;28;20552;-69
2022/01/01 06:42:25;;;;;;;39.73;17.27;;;;;;;11.47;94.33;102107.97;5049626;28;20564;-69
2022/01/01 06:44:50;;;;;;;41.50;18.90;;;;;;;11.48;94.34;102114.84;5048202;28;20300;-69
2022/01/01 06:47:15;;;;;;;39.30;18.47;;;;;;;11.48;94.42;102123.38;5031592;28;20677;-69
2022/01/01 06:49:41;;;;;;;38.70;17.77;;;;;;;11.46;94.35;102119.91;5031908;28;20213;-69
2022/01/01 06:52:06;;;;;;;39.93;17.50;;;;;;;11.47;94.35;102131.06;5058784;28;20656;-69
2022/01/01 06:54:31;;;;;;;37.43;17.77;;;;;;;11.45;94.22;102141.25;5049402;28;20182;-69
2022/01/01 06:56:57;;;;;;;38.60;18.00;;;;;;;11.41;94.37;102131.69;5049285;28;20173;-70
2022/01/01 06:59:22;;;;;;;34.40;16.83;;;;;;;11.44;94.29;102134.38;5049136;28;20181;-69
2022/01/01 07:01:48;;;;;;;34.07;15.60;;;;;;;11.45;94.31;102137.81;5049348;28;20190;-69
2022/01/01 07:04:13;;;;;;;38.77;17.67;;;;;;;11.44;94.31;102147.22;5049391;28;20220;-69
2022/01/01 07:06:38;;;;;;;35.00;16.67;;;;;;;11.43;93.95;102153.13;5040101;28;20237;-69
2022/01/01 07:09:04;;;;;;;45.20;18.53;;;;;;;11.42;94.29;102141.13;5029033;28;20206;-69
2022/01/01 07:11:30;;;;;;;36.80;18.27;;;;;;;11.41;94.24;102143.63;5028048;28;20240;-69
2022/01/01 07:13:55;;;;;;;34.33;17.00;;;;;;;11.44;94.34;102149.78;5029574;28;20179;-69
2022/01/01 07:16:21;;;;;;;34.83;16.93;;;;;;;11.42;94.01;102158.19;5027886;28;20210;-69
2022/01/01 07:18:46;;;;;;;36.17;17.50;;;;;;;11.44;94.61;102146.31;5028846;28;20270;-69
2022/01/01 07:21:12;;;;;;;36.90;16.90;;;;;;;11.44;94.52;102151.44;5029175;28;20194;-69
2022/01/01 07:23:37;;;;;;;39.03;17.40;;;;;;;11.44;94.16;102152.34;5029625;28;20229;-69
2022/01/01 07:26:02;;;;;;;38.17;16.97;;;;;;;11.42;94.71;102159.09;5029237;28;20198;-69
2022/01/01 07:28:28;;;;;;;34.50;16.67;;;;;;;11.43;94.47;102157.41;5028930;28;20328;-69
2022/01/01 07:30:53;;;;;;;35.37;17.20;;;;;;;11.44;94.36;102154.00;5029191;28;20186;-69
2022/01/01 07:33:18;;;;;;;39.33;16.90;;;;;;;11.42;94.73;102161.66;5029034;28;20190;-69
2022/01/01 07:35:44;;;;;;;38.83;17.07;;;;;;;11.43;94.73;102154.84;5029099;28;20210;-69
2022/01/01 07:38:09;;;;;;;33.10;17.27;;;;;;;11.41;94.66;102157.34;5027491;28;20221;-69
2022/01/01 07:40:35;;;;;;;36.23;17.37;;;;;;;11.42;94.63;102160.75;5029683;28;20202;-69
2022/01/01 07:43:01;;;;;;;42.30;17.17;;;;;;;11.44;94.95;102172.84;5029303;28;20186;-69
2022/01/01 07:45:27;;;;;;;37.47;17.07;;;;;;;11.42;94.78;102171.03;5029025;28;20267;-69
2022/01/01 07:47:52;;;;;;;39.30;17.80;;;;;;;11.41;94.69;102184.66;5032223;28;20269;-69
2022/01/01 07:50:17;;;;;;;37.43;18.40;;;;;;;11.40;94.92;102183.81;5048561;28;20205;-69
2022/01/01 07:52:42;;;;;;;41.07;17.63;;;;;;;11.38;94.69;102188.00;5048862;28;20259;-69
2022/01/01 07:55:09;;;;;;;42.87;17.60;;;;;;;11.38;94.22;102194.84;5048879;28;20674;-69
2022/01/01 07:57:34;;;;;;;41.37;17.90;;;;;;;11.39;94.65;102199.13;5048225;28;20194;-69
2022/01/01 08:00:00;;;;;;;38.03;18.60;;;;;;;11.41;94.83;102200.94;5048905;28;20593;-69
2022/01/01 08:02:25;;;;;;;43.83;17.90;;;;;;;11.41;95.16;102194.94;5049290;28;20185;-69
2022/01/01 08:04:50;;;;;;;40.60;18.40;;;;;;;11.42;94.93;102195.00;5052486;28;20725;-69
2022/01/01 08:07:16;;;;;;;42.20;18.43;;;;;;;11.43;95.26;102193.31;5052764;28;20677;-69
2022/01/01 08:09:41;;;;;;;36.67;17.47;;;;;;;11.44;94.89;102197.63;5052309;28;20209;-69
2022/01/01 08:12:07;;;;;;;45.20;18.20;;;;;;;11.45;94.96;102207.06;5052669;28;20178;-69
2022/01/01 08:14:32;;;;;;;40.63;18.83;;;;;;;11.44;94.89;102213.00;5044192;28;20202;-69
2022/01/01 08:16:59;;;;;;;34.80;17.80;;;;;;;11.46;95.29;102207.13;5032432;28;20218;-69
2022/01/01 08:19:26;;;;;;;40.97;18.30;;;;;;;11.47;94.90;102213.13;5032076;28;20190;-69
2022/01/01 08:21:51;;;;;;;38.30;17.80;;;;;;;11.50;95.24;102216.69;5043663;28;20248;-70
2022/01/01 08:24:17;;;;;;;44.03;17.70;;;;;;;11.49;94.75;102217.50;5043285;28;20179;-69
2022/01/01 08:26:42;;;;;;;41.10;18.40;;;;;;;11.51;95.15;102223.56;5023504;28;20263;-69
2022/01/01 08:29:07;;;;;;;43.53;18.87;;;;;;;11.53;95.08;102227.03;5040776;28;20297;-69
2022/01/01 08:31:33;;;;;;;54.43;21.33;;;;;;;11.53;94.86;102228.75;5037790;28;20214;-70
2022/01/01 08:33:58;;;;;;;39.53;19.20;;;;;;;11.55;94.80;102233.13;5016406;28;20220;-69
2022/01/01 08:36:23;;;;;;;48.40;21.13;;;;;;;11.55;94.72;102229.66;5028876;28;20670;-70
2022/01/01 08:38:48;;;;;;;45.40;20.70;;;;;;;11.57;94.83;102239.16;5027972;28;20259;-70
2022/01/01 08:41:14;;;;;;;48.77;21.87;;;;;;;11.59;94.81;102231.53;5039944;28;20213;-70
2022/01/01 08:43:39;;;;;;;46.70;21.33;;;;;;;11.61;94.77;102237.66;5024967;28;20217;-70
2022/01/01 08:46:07;;;;;;;43.40;22.20;;;;;;;11.62;94.17;102240.25;5039934;28;20216;-69
2022/01/01 08:48:32;;;;;;;46.10;22.83;;;;;;;11.62;94.48;102229.97;5041766;28;20237;-70
2022/01/01 08:50:57;;;;;;;50.27;23.47;;;;;;;11.65;94.36;102229.22;5051262;28;20229;-70
2022/01/01 08:53:23;;;;;;;52.53;23.27;;;;;;;11.63;94.63;102226.63;5051141;28;20194;-69
2022/01/01 08:55:48;;;;;;;51.77;25.10;;;;;;;11.66;94.57;102233.56;5051021;28;20255;-70
2022/01/01 08:58:13;;;;;;;53.13;24.67;;;;;;;11.65;94.42;102227.53;5051039;28;20174;-71
2022/01/01 09:00:39;;;;;;;53.60;25.30;;;;;;;11.65;94.43;102232.66;5051122;28;20252;-71
2022/01/01 09:03:04;;;;;;;49.53;24.17;;;;;;;11.63;94.36;102241.13;5051022;28;20182;-71
2022/01/01 09:05:30;;;;;;;50.57;25.33;;;;;;;11.63;94.58;102248.81;5050184;28;20206;-71
2022/01/01 09:07:55;;;;;;;56.00;27.20;;;;;;;11.62;94.81;102254.78;5051054;28;20247;-72
2022/01/01 09:10:20;;;;;;;57.63;26.33;;;;;;;11.63;94.47;102259.09;5051034;28;20217;-71
2022/01/01 09:12:46;;;;;;;65.67;28.43;;;;;;;11.63;94.46;102254.84;5046390;28;20237;-71
2022/01/01 09:15:11;;;;;;;58.27;27.77;;;;;;;11.63;94.57;102252.28;5048647;28;20225;-70
2022/01/01 09:17:36;;;;;;;63.17;30.87;;;;;;;11.66;94.66;102248.94;5044757;28;20259;-71
2022/01/01 09:20:03;;;;;;;67.53;31.67;;;;;;;11.71;94.79;102250.00;5046151;28;20203;-70
2022/01/01 09:22:28;;;;;;;64.30;31.13;;;;;;;11.75;95.20;102262.97;5054910;28;20187;-70
2022/01/01 09:24:53;;;;;;;68.77;33.03;;;;;;;11.78;94.91;102265.66;5038314;28;20252;-70
2022/01/01 09:27:19;;;;;;;71.60;35.53;;;;;;;11.76;94.87;102267.28;5051437;28;20428;-71
2022/01/01 09:29:44;;;;;;;74.83;37.07;;;;;;;11.75;94.66;102267.25;5032109;28;20656;-71
2022/01/01 09:32:10;;;;;;;70.43;36.07;;;;;;;11.79;94.91;102275.13;5033954;28;20244;-71
2022/01/01 09:34:36;;;;;;;77.57;39.60;;;;;;;11.86;94.58;102266.84;5048619;28;20193;-71
2022/01/01 09:37:02;;;;;;;81.43;41.07;;;;;;;11.89;94.55;102264.38;5050281;28;20193;-70
2022/01/01 09:39:27;;;;;;;82.37;42.50;;;;;;;11.92;94.54;102268.72;5050164;28;20550;-71
2022/01/01 09:41:52;;;;;;;88.40;43.37;;;;;;;11.94;94.17;102275.66;5029995;28;20206;-71
2022/01/01 09:44:18;;;;;;;88.33;42.10;;;;;;;11.96;94.51;102274.06;5049907;28;20233;-70
2022/01/01 09:46:46;;;;;;;81.70;42.27;;;;;;;11.97;94.46;102280.94;5049817;28;20210;-70
2022/01/01 09:49:18;;;;;;;83.03;44.03;;;;;;;11.97;94.57;102291.19;5049984;28;20216;-70
2022/01/01 09:51:44;;;;;;;83.83;45.40;;;;;;;11.95;94.72;102284.25;5030802;28;20198;-70
2022/01/01 09:54:10;;;;;;;95.47;46.33;;;;;;;11.96;94.79;102291.13;5044401;28;20253;-71
2022/01/01 09:56:36;;;;;;;99.30;46.47;;;;;;;11.94;94.57;102293.63;5069863;28;20270;-71
2022/01/01 09:59:01;;;;;;;88.20;45.77;;;;;;;11.96;94.49;102289.47;5040224;28;20217;-70
2022/01/01 10:01:27;;;;;;;86.90;46.70;;;;;;;11.96;94.44;102298.84;5030070;28;20226;-73
2022/01/01 10:03:53;;;;;;;89.43;44.87;;;;;;;12.05;94.63;102305.19;5030209;28;20193;-71
2022/01/01 10:06:22;;;;;;;94.37;45.50;;;;;;;12.07;94.03;102311.25;5028515;28;20202;-72
2022/01/01 10:08:55;;;;;;;92.37;47.00;;;;;;;12.12;93.81;102306.31;5029780;28;20628;-72
2022/01/01 10:11:21;;;;;;;85.10;43.33;;;;;;;12.13;94.01;102308.91;5029906;28;20190;-72
2022/01/01 10:13:46;;;;;;;87.87;43.53;;;;;;;12.19;94.05;102310.81;5029654;28;20253;-72
2022/01/01 10:16:12;;;;;;;87.00;44.50;;;;;;;12.21;93.28;102307.50;5028229;28;20218;-72
2022/01/01 10:18:40;;;;;;;94.97;44.23;;;;;;;12.22;93.45;102306.66;5058011;28;20200;-72
2022/01/01 10:21:14;;;;;;;88.07;42.33;;;;;;;12.26;93.65;102315.38;5049389;28;20185;-72
2022/01/01 10:23:42;;;;;;;74.97;41.67;;;;;;;12.31;93.55;102316.41;5049709;28;20177;-71
2022/01/01 10:29:16;;;;;;;90.77;45.37;;;;;;;12.34;92.71;102324.22;5042537;28;20226;-72
2022/01/01 10:31:59;;;;;;;83.87;45.30;;;;;;;12.35;92.54;102324.28;5015596;28;20225;-71
2022/01/01 10:34:27;;;;;;;91.17;44.93;;;;;;;12.39;92.71;102323.56;5050040;28;20189;-73
2022/01/01 10:36:54;;;;;;;94.13;45.07;;;;;;;12.37;92.67;102321.75;5069504;28;20184;-71
2022/01/01 10:39:21;;;;;;;82.80;45.07;;;;;;;12.33;92.49;102328.50;5069202;28;20646;-71
2022/01/01 10:42:01;;;;;;;82.47;44.53;;;;;;;12.33;92.36;102331.06;5069223;28;20197;-71
2022/01/01 10:44:29;;;;;;;97.47;46.97;;;;;;;12.31;92.75;102326.69;5049242;28;20197;-70
2022/01/01 10:46:55;;;;;;;93.60;47.10;;;;;;;12.35;92.54;102328.56;5049331;28;20334;-71
2022/01/01 10:49:52;;;;;;;79.97;44.03;;;;;;;12.33;92.74;102332.75;5036071;28;20261;-69
2022/01/01 10:52:29;;;;;;;86.23;45.30;;;;;;;12.30;92.33;102323.22;5028821;28;20228;-71
2022/01/01 10:55:02;;;;;;;89.90;44.07;;;;;;;12.33;92.34;102333.63;5053525;28;20212;-70
2022/01/01 10:57:27;;;;;;;84.03;43.50;;;;;;;12.33;92.42;102335.31;5052234;28;20192;-71
2022/01/01 11:00:07;;;;;;;80.00;43.57;;;;;;;12.27;92.37;102338.56;5048518;28;20177;-71
2022/01/01 11:02:34;;;;;;;77.10;42.97;;;;;;;12.27;92.10;102336.00;5048611;28;20288;-70
2022/01/01 11:04:59;;;;;;;79.43;43.10;;;;;;;12.24;91.73;102333.28;5048506;28;20200;-70
2022/01/01 11:07:27;;;;;;;78.17;42.00;;;;;;;12.21;91.57;102333.16;5030170;28;20194;-70
2022/01/01 11:09:54;;;;;;;86.07;43.00;;;;;;;12.21;91.77;102322.91;5028259;28;20218;-70
2022/01/01 11:12:21;;;;;;;78.33;42.10;;;;;;;12.19;91.17;102332.25;5028697;28;20191;-69